createdAt,value
2023-04-18T00:01:00.000Z,73
2023-04-18T00:02:16.742Z,73.3
2023-04-18T00:03:33.000Z,73.4
2023-04-18T00:04:49.000Z,73.5
2023-04-18T00:06:05.000Z,73.6
2023-04-18T00:07:21.000Z,73.4
2023-04-18T00:08:37.000Z,73.5
2023-04-18T00:09:53.000Z,73.5
2023-04-18T00:11:10.000Z,73.5
2023-04-18T00:12:26.000Z,73.5
2023-04-18T00:13:42.000Z,73.6
2023-04-18T00:14:57.000Z,73.5
2023-04-18T00:16:13.000Z,73.5
2023-04-18T00:17:30.000Z,73.4
2023-04-18T00:18:46.000Z,73.5
2023-04-18T00:20:02.000Z,73.5
2023-04-18T00:21:18.000Z,73.4
2023-04-18T00:22:34.000Z,73.2
2023-04-18T00:23:51.000Z,72.8
2023-04-18T00:25:07.000Z,72.7
2023-04-18T00:26:23.000Z,72.8
2023-04-18T00:27:39.000Z,72.8
2023-04-18T00:28:55.000Z,73
2023-04-18T00:30:12.000Z,73.2
2023-04-18T00:31:27.000Z,73.3
2023-04-18T00:32:43.000Z,73
2023-04-18T00:33:59.000Z,72.7
2023-04-18T00:35:15.000Z,72.7
2023-04-18T00:36:32.000Z,72.5
2023-04-18T00:37:48.000Z,72.8
2023-04-18T00:39:04.000Z,72.8
2023-04-18T00:40:20.693Z,72.8
2023-04-18T00:41:36.000Z,73
2023-04-18T00:42:53.000Z,72.8
2023-04-18T00:44:09.000Z,72.8
2023-04-18T00:45:25.000Z,72.8
2023-04-18T00:46:41.000Z,72.8
2023-04-18T00:47:56.000Z,72.7
2023-04-18T00:49:13.000Z,72.5
2023-04-18T00:50:29.000Z,72.4
2023-04-18T00:51:45.000Z,72.4
2023-04-18T00:53:01.000Z,72.5
2023-04-18T00:54:17.000Z,72.8
2023-04-18T00:55:34.000Z,72.8
2023-04-18T00:56:50.000Z,72.9
2023-04-18T00:58:06.000Z,72.9
2023-04-18T00:59:22.000Z,73
2023-04-18T01:00:38.000Z,73.1
2023-04-18T01:01:55.000Z,73.2
2023-04-18T01:03:11.000Z,73.3
2023-04-18T01:04:26.000Z,73.3
2023-04-18T01:05:42.000Z,73.3
2023-04-18T01:06:58.000Z,73.2
2023-04-18T01:08:15.000Z,73.3
2023-04-18T01:09:31.000Z,73.6
2023-04-18T01:10:47.000Z,73.8
2023-04-18T01:12:03.000Z,74
2023-04-18T01:13:19.000Z,73.9
2023-04-18T01:14:36.000Z,73.8
2023-04-18T01:15:52.000Z,73.6
2023-04-18T01:17:08.000Z,73.6
2023-04-18T01:18:24.589Z,73.8
2023-04-18T01:19:40.000Z,73.8
2023-04-18T01:20:56.000Z,74.2
2023-04-18T01:22:12.000Z,74.2
2023-04-18T01:23:28.000Z,74.3
2023-04-18T01:24:44.000Z,74.3
2023-04-18T01:26:00.000Z,74.2
2023-04-18T01:27:16.000Z,74.3
2023-04-18T01:28:32.000Z,74.3
2023-04-18T01:29:48.000Z,74.5
2023-04-18T01:31:04.000Z,74.3
2023-04-18T01:32:20.000Z,74.3
2023-04-18T01:33:36.000Z,74.3
2023-04-18T01:34:53.000Z,74.3
2023-04-18T01:36:09.000Z,74.5
2023-04-18T01:37:25.000Z,74.3
2023-04-18T01:38:41.000Z,74.5
2023-04-18T01:39:57.000Z,74.6
2023-04-18T01:41:14.000Z,74.7
2023-04-18T01:42:30.000Z,74.6
2023-04-18T01:43:46.000Z,74.6
2023-04-18T01:45:01.000Z,74.5
2023-04-18T01:46:17.000Z,74.5
2023-04-18T01:47:34.000Z,74.5
2023-04-18T01:48:50.000Z,74.3
2023-04-18T01:50:06.000Z,74.2
2023-04-18T01:51:22.000Z,74.1
2023-04-18T01:52:38.000Z,74.2
2023-04-18T01:53:55.000Z,74.3
2023-04-18T01:55:11.000Z,74.3
2023-04-18T01:57:43.000Z,74.4
2023-04-18T01:58:59.000Z,74.3
2023-04-18T02:00:16.000Z,74.4
2023-04-18T02:01:31.000Z,74.4
2023-04-18T02:02:47.000Z,74.5
2023-04-18T02:04:03.000Z,74.5
2023-04-18T02:05:19.000Z,74.3
2023-04-18T02:06:36.000Z,74.4
2023-04-18T02:07:52.000Z,74.4
2023-04-18T02:09:08.000Z,74.3
2023-04-18T02:10:24.000Z,74.5
2023-04-18T02:11:40.000Z,74.6
2023-04-18T02:12:57.000Z,74.8
2023-04-18T02:14:13.000Z,74.9
2023-04-18T02:15:29.000Z,75
2023-04-18T02:16:45.000Z,74.9
2023-04-18T02:18:00.000Z,74.9
2023-04-18T02:19:17.000Z,74.9
2023-04-18T02:20:33.000Z,75.1
2023-04-18T02:21:49.000Z,75.4
2023-04-18T02:23:05.000Z,75.5
2023-04-18T02:24:21.000Z,75.5
2023-04-18T02:25:38.000Z,75.5
2023-04-18T02:26:54.000Z,75.4
2023-04-18T02:28:10.000Z,75.3
2023-04-18T02:29:26.000Z,75.3
2023-04-18T02:30:42.000Z,75.4
2023-04-18T02:31:59.000Z,75.6
2023-04-18T02:33:15.000Z,75.5
2023-04-18T02:34:30.000Z,75.5
2023-04-18T02:35:46.000Z,75.5
2023-04-18T02:37:02.000Z,75.3
2023-04-18T02:38:19.000Z,74.9
2023-04-18T02:39:35.000Z,74.8
2023-04-18T02:40:51.000Z,74.5
2023-04-18T02:42:07.000Z,74.5
2023-04-18T02:43:23.785Z,74.6
2023-04-18T02:44:40.000Z,74.7
2023-04-18T02:45:56.000Z,74.8
2023-04-18T02:47:12.000Z,74.8
2023-04-18T02:48:28.000Z,74.9
2023-04-18T02:49:44.000Z,74.8
2023-04-18T02:50:59.000Z,74.9
2023-04-18T02:52:16.000Z,74.9
2023-04-18T02:53:32.000Z,75
2023-04-18T02:54:48.000Z,75.2
2023-04-18T02:56:04.000Z,75
2023-04-18T02:57:20.000Z,74.9
2023-04-18T02:58:37.000Z,75
2023-04-18T02:59:53.000Z,75
2023-04-18T03:01:09.000Z,75
2023-04-18T03:02:25.000Z,74.9
2023-04-18T03:03:41.000Z,74.7
2023-04-18T03:04:58.000Z,74.9
2023-04-18T03:06:14.000Z,74.8
2023-04-18T03:07:29.000Z,74.7
2023-04-18T03:08:45.000Z,74.9
2023-04-18T03:10:01.000Z,74.8
2023-04-18T03:11:18.000Z,74.9
2023-04-18T03:12:34.000Z,75
2023-04-18T03:13:50.000Z,75.1
2023-04-18T03:15:06.000Z,75.1
2023-04-18T03:16:22.000Z,75.2
2023-04-18T03:17:39.000Z,75.4
2023-04-18T03:18:55.000Z,75.4
2023-04-18T03:20:11.000Z,75.2
2023-04-18T03:21:27.000Z,75.1
2023-04-18T03:22:43.000Z,75.3
2023-04-18T03:23:59.000Z,75.4
2023-04-18T03:25:15.228Z,75.4
2023-04-18T03:26:31.416Z,75.4
2023-04-18T03:27:47.000Z,75.2
2023-04-18T03:29:03.000Z,75.2
2023-04-18T03:30:20.000Z,75.1
2023-04-18T03:31:36.000Z,75
2023-04-18T03:32:52.000Z,74.9
2023-04-18T03:34:08.000Z,75.1
2023-04-18T03:35:24.000Z,75.1
2023-04-18T03:36:41.000Z,75.2
2023-04-18T03:37:57.179Z,75.3
2023-04-18T03:39:13.000Z,75.5
2023-04-18T03:40:28.000Z,75.5
2023-04-18T03:41:44.000Z,75.7
2023-04-18T03:43:00.000Z,75.7
2023-04-18T03:44:17.000Z,75.4
2023-04-18T03:45:33.000Z,75.4
2023-04-18T03:46:49.000Z,75.5
2023-04-18T03:48:05.000Z,75.6
2023-04-18T03:49:21.000Z,75.4
2023-04-18T03:50:38.000Z,75.4
2023-04-18T03:51:54.000Z,75.5
2023-04-18T03:53:10.000Z,75.6
2023-04-18T03:54:26.000Z,75.8
2023-04-18T03:55:42.000Z,76
2023-04-18T03:56:58.000Z,76
2023-04-18T03:58:14.000Z,75.9
2023-04-18T03:59:30.000Z,75.9
2023-04-18T04:00:46.000Z,75.9
2023-04-18T04:02:02.000Z,75.9
2023-04-18T04:03:19.000Z,76.1
2023-04-18T04:04:35.000Z,76.3
2023-04-18T04:05:51.000Z,76.5
2023-04-18T04:07:07.000Z,76.5
2023-04-18T04:08:23.000Z,76.5
2023-04-18T04:09:40.000Z,76.7
2023-04-18T04:10:56.000Z,76.7
2023-04-18T04:12:12.000Z,76.6
2023-04-18T04:13:27.000Z,76.5
2023-04-18T04:14:43.000Z,76.7
2023-04-18T04:16:00.024Z,77
2023-04-18T04:17:16.000Z,77
2023-04-18T04:18:32.000Z,77
2023-04-18T04:19:48.000Z,77.1
2023-04-18T04:21:04.000Z,77.2
2023-04-18T04:22:21.000Z,77.2
2023-04-18T04:23:37.000Z,77.1
2023-04-18T04:24:53.000Z,77.1
2023-04-18T04:26:09.000Z,77.2
2023-04-18T04:27:25.000Z,77.3
2023-04-18T04:28:41.958Z,77.3
2023-04-18T04:29:57.000Z,77.4
2023-04-18T04:31:13.000Z,77.5
2023-04-18T04:32:29.567Z,77.6
2023-04-18T04:33:45.000Z,77.9
2023-04-18T04:35:01.000Z,77.9
2023-04-18T04:36:18.000Z,77.9
2023-04-18T04:37:34.000Z,77.7
2023-04-18T04:38:50.000Z,77.7
2023-04-18T04:40:06.000Z,77.8
2023-04-18T04:41:22.000Z,77.6
2023-04-18T04:42:39.000Z,77.6
2023-04-18T04:43:55.000Z,77.7
2023-04-18T04:45:11.000Z,77.7
2023-04-18T04:46:26.000Z,77.7
2023-04-18T04:47:42.000Z,78
2023-04-18T04:48:59.000Z,78.1
2023-04-18T04:50:15.000Z,78.2
2023-04-18T04:51:31.000Z,78.3
2023-04-18T04:52:47.000Z,78.2
2023-04-18T04:54:03.000Z,78.3
2023-04-18T04:55:20.000Z,78.3
2023-04-18T04:56:36.000Z,78.3
2023-04-18T04:57:52.000Z,78.4
2023-04-18T04:59:08.000Z,78.4
2023-04-18T05:00:24.833Z,78.4
2023-04-18T05:01:41.000Z,78.3
2023-04-18T05:02:56.000Z,78.2
2023-04-18T05:04:12.000Z,78.2
2023-04-18T05:05:28.000Z,78.4
2023-04-18T05:06:44.000Z,78.6
2023-04-18T05:08:01.000Z,78.6
2023-04-18T05:09:17.000Z,78.6
2023-04-18T05:10:33.000Z,78.5
2023-04-18T05:11:49.000Z,78.6
2023-04-18T05:13:05.000Z,78.6
2023-04-18T05:14:22.000Z,78.6
2023-04-18T05:15:38.000Z,78.4
2023-04-18T05:16:54.000Z,78.5
2023-04-18T05:18:10.000Z,78.8
2023-04-18T05:19:25.000Z,78.6
2023-04-18T05:20:42.000Z,78.6
2023-04-18T05:21:58.000Z,78.6
2023-04-18T05:23:14.000Z,78.4
2023-04-18T05:24:30.000Z,78.3
2023-04-18T05:25:46.000Z,78
2023-04-18T05:27:02.000Z,77.6
2023-04-18T05:28:19.000Z,77.3
2023-04-18T05:29:35.000Z,77.1
2023-04-18T05:30:51.000Z,77.1
2023-04-18T05:32:07.000Z,76.8
2023-04-18T05:33:23.000Z,76.6
2023-04-18T05:34:40.000Z,76.6
2023-04-18T05:35:55.000Z,76.9
2023-04-18T05:37:11.000Z,77.4
2023-04-18T05:38:27.000Z,77.6
2023-04-18T05:39:43.000Z,77.5
2023-04-18T05:41:00.000Z,77.7
2023-04-18T05:42:16.000Z,77.6
2023-04-18T05:43:31.000Z,77.7
2023-04-18T05:44:47.000Z,78.2
2023-04-18T05:46:03.000Z,78.5
2023-04-18T05:47:20.000Z,78.5
2023-04-18T05:48:36.000Z,78.6
2023-04-18T05:49:52.000Z,78.4
2023-04-18T05:51:08.000Z,78.3
2023-04-18T05:52:24.000Z,78.4
2023-04-18T05:53:41.000Z,78.5
2023-04-18T05:54:57.000Z,78.8
2023-04-18T05:56:13.000Z,79.3
2023-04-18T05:57:29.000Z,79.6
2023-04-18T05:58:45.000Z,79.4
2023-04-18T06:00:01.000Z,79.2
2023-04-18T06:01:17.000Z,79.1
2023-04-18T06:02:33.000Z,79.2
2023-04-18T06:03:49.000Z,79.5
2023-04-18T06:05:05.000Z,80
2023-04-18T06:06:22.000Z,80.1
2023-04-18T06:07:38.000Z,80.4
2023-04-18T06:08:54.000Z,80.4
2023-04-18T06:10:10.583Z,80.2
2023-04-18T06:11:26.000Z,80.2
2023-04-18T06:12:42.000Z,80.2
2023-04-18T06:13:59.000Z,80.2
2023-04-18T06:15:15.000Z,80.4
2023-04-18T06:16:30.000Z,80.7
2023-04-18T06:17:46.000Z,81.3
2023-04-18T06:19:02.000Z,81.4
2023-04-18T06:20:19.000Z,81.5
2023-04-18T06:21:35.000Z,81.7
2023-04-18T06:22:51.527Z,81.8
2023-04-18T06:24:07.000Z,81.7
2023-04-18T06:25:23.000Z,81.7
2023-04-18T06:26:40.000Z,81.8
2023-04-18T06:27:56.000Z,81.8
2023-04-18T06:29:12.000Z,81.7
2023-04-18T06:30:28.000Z,81.7
2023-04-18T06:31:44.000Z,81.8
2023-04-18T06:33:00.000Z,81.7
2023-04-18T06:34:16.000Z,81.3
2023-04-18T06:35:32.479Z,81.1
2023-04-18T06:36:48.000Z,81.1
2023-04-18T06:38:04.000Z,81.4
2023-04-18T06:39:21.000Z,81.7
2023-04-18T06:40:37.000Z,81.9
2023-04-18T06:41:53.000Z,81.9
2023-04-18T06:43:09.000Z,82
2023-04-18T06:44:25.000Z,82.1
2023-04-18T06:45:42.000Z,82.1
2023-04-18T06:46:58.000Z,82.2
2023-04-18T06:48:14.408Z,82.3
2023-04-18T06:49:29.000Z,82.8
2023-04-18T06:50:45.000Z,82.8
2023-04-18T06:52:02.000Z,82.7
2023-04-18T06:53:18.000Z,82.5
2023-04-18T06:54:34.000Z,82.5
2023-04-18T06:55:50.000Z,82.8
2023-04-18T06:57:06.000Z,82.8
2023-04-18T06:58:23.000Z,82.7
2023-04-18T06:59:39.000Z,82.7
2023-04-18T07:00:55.374Z,82.5
2023-04-18T07:02:11.000Z,82.6
2023-04-18T07:03:27.000Z,83.1
2023-04-18T07:04:43.000Z,83.2
2023-04-18T07:05:59.000Z,83.3
2023-04-18T07:07:15.000Z,83.2
2023-04-18T07:08:31.000Z,83.2
2023-04-18T07:09:47.000Z,83.5
2023-04-18T07:11:03.000Z,83.4
2023-04-18T07:12:20.000Z,83.1
2023-04-18T07:13:36.327Z,83.3
2023-04-18T07:14:52.000Z,83
2023-04-18T07:16:08.000Z,82.8
2023-04-18T07:17:24.000Z,82.5
2023-04-18T07:18:41.000Z,82.3
2023-04-18T07:19:57.000Z,81.8
2023-04-18T07:21:13.000Z,81.8
2023-04-18T07:22:28.000Z,81.8
2023-04-18T07:23:44.000Z,82
2023-04-18T07:25:01.000Z,82.2
2023-04-18T07:26:17.274Z,82.3
2023-04-18T07:27:33.000Z,82.6
2023-04-18T07:28:49.000Z,82.9
2023-04-18T07:30:05.000Z,83.1
2023-04-18T07:31:22.000Z,83.1
2023-04-18T07:32:38.000Z,82.7
2023-04-18T07:33:54.000Z,82.4
2023-04-18T07:35:10.000Z,81.9
2023-04-18T07:36:26.000Z,81.7
2023-04-18T07:37:43.000Z,82.1
2023-04-18T07:38:58.000Z,82.4
2023-04-18T07:40:14.000Z,82.6
2023-04-18T07:41:30.000Z,82.8
2023-04-18T07:42:46.000Z,82.8
2023-04-18T07:44:03.000Z,82.7
2023-04-18T07:45:19.000Z,82.6
2023-04-18T07:46:35.000Z,82.2
2023-04-18T07:47:51.000Z,82.2
2023-04-18T07:49:07.000Z,82.4
2023-04-18T07:50:24.000Z,82.7
2023-04-18T07:51:40.160Z,83.1
2023-04-18T07:52:56.000Z,83.4
2023-04-18T07:54:12.000Z,83.5
2023-04-18T07:55:27.000Z,83.7
2023-04-18T07:56:43.000Z,83.9
2023-04-18T07:58:00.131Z,83.9
2023-04-18T07:59:16.323Z,83.6
2023-04-18T08:00:32.000Z,83.9
2023-04-18T08:01:48.000Z,84
2023-04-18T08:03:04.903Z,83.9
2023-04-18T08:04:21.116Z,83.9
2023-04-18T08:05:37.000Z,83.9
2023-04-18T08:06:53.000Z,84.1
2023-04-18T08:08:09.000Z,84.1
2023-04-18T08:09:25.000Z,83.9
2023-04-18T08:10:42.000Z,83.7
2023-04-18T08:11:57.000Z,83.4
2023-04-18T08:13:13.000Z,83.4
2023-04-18T08:14:29.000Z,83.2
2023-04-18T08:15:45.000Z,83
2023-04-18T08:17:02.057Z,82.7
2023-04-18T08:18:18.000Z,82.9
2023-04-18T08:19:34.000Z,83
2023-04-18T08:20:50.000Z,83.2
2023-04-18T08:22:06.000Z,83.6
2023-04-18T08:23:23.000Z,84.1
2023-04-18T08:24:39.000Z,84.4
2023-04-18T08:25:55.000Z,84.4
2023-04-18T08:27:11.000Z,84.3
2023-04-18T08:28:26.000Z,84
2023-04-18T08:29:43.010Z,84
2023-04-18T08:30:59.000Z,84
2023-04-18T08:32:15.000Z,84
2023-04-18T08:33:31.000Z,83.7
2023-04-18T08:34:47.000Z,83.4
2023-04-18T08:36:04.000Z,83.4
2023-04-18T08:37:20.000Z,83.4
2023-04-18T08:38:36.000Z,83.3
2023-04-18T08:39:52.000Z,83.2
2023-04-18T08:41:08.000Z,82.9
2023-04-18T08:42:24.000Z,82.7
2023-04-18T08:43:41.000Z,82.6
2023-04-18T08:44:56.000Z,82.6
2023-04-18T08:46:12.000Z,82.6
2023-04-18T08:47:28.000Z,82.5
2023-04-18T08:48:44.000Z,82.4
2023-04-18T08:50:01.000Z,82.6
2023-04-18T08:51:17.000Z,82.3
2023-04-18T08:52:33.000Z,82.2
2023-04-18T08:53:49.000Z,82.2
2023-04-18T08:55:05.000Z,82
2023-04-18T08:56:22.000Z,81.5
2023-04-18T08:57:38.000Z,81.1
2023-04-18T08:58:54.000Z,80.9
2023-04-18T09:00:10.000Z,80.9
2023-04-18T09:01:25.000Z,81.1
2023-04-18T09:02:42.000Z,81.3
2023-04-18T09:03:58.000Z,81
2023-04-18T09:05:14.000Z,80.9
2023-04-18T09:06:30.000Z,81
2023-04-18T09:07:46.836Z,81
2023-04-18T09:09:03.000Z,80.8
2023-04-18T09:10:19.000Z,80.5
2023-04-18T09:11:35.428Z,80.4
2023-04-18T09:12:51.000Z,80.4
2023-04-18T09:14:07.000Z,80.3
2023-04-18T09:15:24.000Z,80.3
2023-04-18T09:16:40.000Z,80.2
2023-04-18T09:17:55.000Z,80
2023-04-18T09:19:11.000Z,79.9
2023-04-18T09:20:27.000Z,79.7
2023-04-18T09:21:44.000Z,79.3
2023-04-18T09:23:00.000Z,79
2023-04-18T09:24:16.000Z,78.4
2023-04-18T09:25:32.573Z,78.6
2023-04-18T09:26:48.000Z,78.6
2023-04-18T09:28:05.000Z,77.9
2023-04-18T09:29:21.000Z,77
2023-04-18T09:30:37.000Z,76.9
2023-04-18T09:31:53.000Z,77.2
2023-04-18T09:33:09.000Z,77.3
2023-04-18T09:34:24.000Z,77.1
2023-04-18T09:35:41.000Z,76.7
2023-04-18T09:36:57.000Z,76.5
2023-04-18T09:38:13.000Z,76.3
2023-04-18T09:39:29.000Z,75.4
2023-04-18T09:40:45.000Z,74.4
2023-04-18T09:42:02.000Z,73.2
2023-04-18T09:43:18.000Z,71.9
2023-04-18T09:44:34.000Z,71.5
2023-04-18T09:45:50.683Z,71.6
2023-04-18T09:47:06.000Z,70.8
2023-04-18T09:48:23.000Z,71.3
2023-04-18T09:49:39.000Z,70.6
2023-04-18T09:50:54.000Z,70.1
2023-04-18T09:52:10.000Z,70.3
2023-04-18T09:53:26.000Z,71.4
2023-04-18T09:54:43.000Z,71.7
2023-04-18T09:55:59.000Z,71.5
2023-04-18T09:57:15.000Z,71.5
2023-04-18T09:58:30.652Z,71.6
2023-04-18T09:59:46.000Z,71.3
2023-04-18T10:01:03.000Z,71.5
2023-04-18T10:02:19.000Z,71.2
2023-04-18T10:03:35.000Z,71.4
2023-04-18T10:04:51.000Z,71.1
2023-04-18T10:06:07.000Z,70.7
2023-04-18T10:07:24.000Z,70.6
2023-04-18T10:08:40.000Z,70.3
2023-04-18T10:09:56.000Z,69.5
2023-04-18T10:11:12.000Z,69.3
2023-04-18T10:12:28.000Z,69.1
2023-04-18T10:13:45.000Z,69.1
2023-04-18T10:15:00.000Z,68.5
2023-04-18T10:16:16.000Z,69.2
2023-04-18T10:17:32.000Z,69.7
2023-04-18T10:18:48.000Z,70.3
2023-04-18T10:20:04.940Z,71
2023-04-18T10:21:21.000Z,71.3
2023-04-18T10:22:37.000Z,71.7
2023-04-18T10:23:53.555Z,71.8
2023-04-18T10:25:09.000Z,71.6
2023-04-18T10:26:25.000Z,71.6
2023-04-18T10:27:42.000Z,72
2023-04-18T10:28:58.000Z,72.2
2023-04-18T10:30:14.000Z,72.3
2023-04-18T10:31:29.000Z,72
2023-04-18T10:32:45.000Z,71.7
2023-04-18T10:34:02.000Z,71
2023-04-18T10:35:18.000Z,71.7
2023-04-18T10:36:34.000Z,72.3
2023-04-18T10:37:50.000Z,72.4
2023-04-18T10:39:06.000Z,72.5
2023-04-18T10:40:23.000Z,72.8
2023-04-18T10:41:39.000Z,72.4
2023-04-18T10:42:55.000Z,72.3
2023-04-18T10:44:11.000Z,72.3
2023-04-18T10:45:27.000Z,72.2
2023-04-18T10:46:44.000Z,72.4
2023-04-18T10:47:59.000Z,72.8
2023-04-18T10:49:15.000Z,72.8
2023-04-18T10:50:31.000Z,73
2023-04-18T10:51:47.000Z,73
2023-04-18T10:53:04.000Z,72.8
2023-04-18T10:54:20.000Z,72.5
2023-04-18T10:55:36.000Z,72.5
2023-04-18T10:56:52.000Z,72.5
2023-04-18T10:58:08.000Z,72.7
2023-04-18T10:59:25.000Z,72.6
2023-04-18T11:00:41.000Z,72.1
2023-04-18T11:01:57.000Z,72.4
2023-04-18T11:03:13.000Z,72.8
2023-04-18T11:04:28.000Z,73.1
2023-04-18T11:05:45.000Z,73.2
2023-04-18T11:07:01.000Z,73.1
2023-04-18T11:08:17.000Z,73.5
2023-04-18T11:09:33.000Z,73.4
2023-04-18T11:10:49.000Z,72.8
2023-04-18T11:12:05.000Z,72.8
2023-04-18T11:13:22.000Z,72.5
2023-04-18T11:14:38.000Z,72.2
2023-04-18T11:15:54.000Z,72
2023-04-18T11:17:10.000Z,71.7
2023-04-18T11:18:26.000Z,71.2
2023-04-18T11:19:43.000Z,70.8
2023-04-18T11:20:58.000Z,70.1
2023-04-18T11:22:14.000Z,69.5
2023-04-18T11:23:30.000Z,70.4
2023-04-18T11:24:46.000Z,70.3
2023-04-18T11:26:03.000Z,70.4
2023-04-18T11:27:19.000Z,70.3
2023-04-18T11:28:35.000Z,69.8
2023-04-18T11:29:51.000Z,70
2023-04-18T11:31:07.000Z,70.4
2023-04-18T11:32:24.000Z,70.4
2023-04-18T11:33:40.000Z,69.8
2023-04-18T11:34:56.000Z,69.7
2023-04-18T11:36:12.000Z,70
2023-04-18T11:37:27.851Z,69.8
2023-04-18T11:38:44.000Z,69.2
2023-04-18T11:40:00.000Z,69
2023-04-18T11:41:16.000Z,68.7
2023-04-18T11:42:32.000Z,68.2
2023-04-18T11:43:48.000Z,68.2
2023-04-18T11:45:05.000Z,68.4
2023-04-18T11:46:21.000Z,68.5
2023-04-18T11:47:37.000Z,67.9
2023-04-18T11:48:53.000Z,67.6
2023-04-18T11:50:09.000Z,67.3
2023-04-18T11:51:25.000Z,66.7
2023-04-18T11:52:42.170Z,66.7
2023-04-18T11:53:57.000Z,66.8
2023-04-18T11:55:13.568Z,66.1
2023-04-18T11:56:29.000Z,65.9
2023-04-18T11:57:45.000Z,65.7
2023-04-18T11:59:02.000Z,65.4
2023-04-18T12:00:18.000Z,65.4
2023-04-18T12:01:34.000Z,65.6
2023-04-18T12:02:50.000Z,65.9
2023-04-18T12:04:06.000Z,65.8
2023-04-18T12:05:23.000Z,65.2
2023-04-18T12:06:39.000Z,65.9
2023-04-18T12:07:55.000Z,65.2
2023-04-18T12:09:11.000Z,64.8
2023-04-18T12:10:26.000Z,64.6
2023-04-18T12:11:43.000Z,64.8
2023-04-18T12:12:59.000Z,64.6
2023-04-18T12:14:15.000Z,64.8
2023-04-18T12:15:31.000Z,64.2
2023-04-18T12:16:47.000Z,64.5
2023-04-18T12:18:04.000Z,64.7
2023-04-18T12:19:20.000Z,64.5
2023-04-18T12:20:36.000Z,64.8
2023-04-18T12:21:52.000Z,64.4
2023-04-18T12:23:08.000Z,64.2
2023-04-18T12:24:25.000Z,63.4
2023-04-18T12:25:41.000Z,62.8
2023-04-18T12:26:56.000Z,62.8
2023-04-18T12:28:12.000Z,62.9
2023-04-18T12:29:28.000Z,61.9
2023-04-18T12:30:45.044Z,62.2
2023-04-18T12:32:01.000Z,62.5
2023-04-18T12:33:17.000Z,62.7
2023-04-18T12:34:33.000Z,62.9
2023-04-18T12:35:49.000Z,63.1
2023-04-18T12:37:06.027Z,63.2
2023-04-18T12:38:22.000Z,63.5
2023-04-18T12:39:38.000Z,62.9
2023-04-18T12:40:54.000Z,63.2
2023-04-18T12:42:10.000Z,62.7
2023-04-18T12:43:26.000Z,63.4
2023-04-18T12:44:42.000Z,63.8
2023-04-18T12:45:58.000Z,64.2
2023-04-18T12:47:14.593Z,62.9
2023-04-18T12:48:30.000Z,62.9
2023-04-18T12:49:47.000Z,63.3
2023-04-18T12:51:03.000Z,63.6
2023-04-18T12:52:19.000Z,63.9
2023-04-18T12:53:35.000Z,63.8
2023-04-18T12:54:51.000Z,63.7
2023-04-18T12:56:07.000Z,63.8
2023-04-18T12:57:24.000Z,63.8
2023-04-18T12:58:40.000Z,63.6
2023-04-18T12:59:55.000Z,63.5
2023-04-18T13:01:11.000Z,63.6
2023-04-18T13:02:27.000Z,63.7
2023-04-18T13:03:44.143Z,63.6
2023-04-18T13:05:00.000Z,63.7
2023-04-18T13:06:16.000Z,63.7
2023-04-18T13:07:32.000Z,63.6
2023-04-18T13:08:48.926Z,63.6
2023-04-18T13:10:05.000Z,64.1
2023-04-18T13:11:21.000Z,63.2
2023-04-18T13:12:37.000Z,63.3
2023-04-18T13:13:53.000Z,63.5
2023-04-18T13:15:09.000Z,63.8
2023-04-18T13:16:25.000Z,63.7
2023-04-18T13:17:41.000Z,63.6
2023-04-18T13:18:57.000Z,63.4
2023-04-18T13:20:13.000Z,63.1
2023-04-18T13:21:29.000Z,63
2023-04-18T13:22:46.000Z,63
2023-04-18T13:24:02.000Z,62.8
2023-04-18T13:25:18.000Z,62.2
2023-04-18T13:26:34.000Z,62.3
2023-04-18T13:27:50.000Z,62
2023-04-18T13:29:07.000Z,62.1
2023-04-18T13:30:23.000Z,62.5
2023-04-18T13:31:39.000Z,62.7
2023-04-18T13:32:54.000Z,62.6
2023-04-18T13:34:10.000Z,63.1
2023-04-18T13:35:27.000Z,63
2023-04-18T13:36:43.000Z,63.1
2023-04-18T13:37:59.447Z,63.2
2023-04-18T13:39:15.000Z,63.2
2023-04-18T13:40:31.000Z,63.3
2023-04-18T13:41:48.000Z,62.9
2023-04-18T13:43:04.000Z,63.1
2023-04-18T13:44:20.000Z,63
2023-04-18T13:45:36.616Z,62.4
2023-04-18T13:46:52.000Z,62.3
2023-04-18T13:48:09.000Z,61.7
2023-04-18T13:49:24.000Z,61.6
2023-04-18T13:50:40.000Z,61.4
2023-04-18T13:51:56.000Z,61.5
2023-04-18T13:53:12.000Z,61.5
2023-04-18T13:54:29.000Z,61.5
2023-04-18T13:55:45.000Z,62.2
2023-04-18T13:57:01.000Z,62.4
2023-04-18T13:58:17.000Z,62.4
2023-04-18T13:59:33.783Z,62.4
2023-04-18T14:00:50.000Z,62.5
2023-04-18T14:02:06.000Z,62.6
2023-04-18T14:03:22.000Z,62.3
2023-04-18T14:04:38.000Z,62.2
2023-04-18T14:05:53.000Z,62.7
2023-04-18T14:07:10.000Z,62.5
2023-04-18T14:08:26.000Z,62.2
2023-04-18T14:09:42.000Z,62.5
2023-04-18T14:10:58.000Z,62.4
2023-04-18T14:12:14.000Z,62.3
2023-04-18T14:13:29.000Z,62.2
2023-04-18T14:14:46.000Z,62.5
2023-04-18T14:16:02.000Z,62.7
2023-04-18T14:17:18.000Z,62.3
2023-04-18T14:18:34.000Z,62.3
2023-04-18T14:19:50.000Z,62.5
2023-04-18T14:21:07.000Z,62.6
2023-04-18T14:22:23.000Z,62.6
2023-04-18T14:23:39.000Z,62.4
2023-04-18T14:24:55.000Z,62.3
2023-04-18T14:26:11.000Z,62.2
2023-04-18T14:27:28.000Z,61.8
2023-04-18T14:28:44.000Z,62.5
2023-04-18T14:29:59.000Z,62.5
2023-04-18T14:31:15.000Z,62.4
2023-04-18T14:32:31.914Z,62.5
2023-04-18T14:33:48.000Z,62.6
2023-04-18T14:35:04.000Z,62.9
2023-04-18T14:36:20.000Z,62.6
2023-04-18T14:37:36.687Z,62.3
2023-04-18T14:38:52.000Z,62.1
2023-04-18T14:40:09.000Z,61.9
2023-04-18T14:41:25.000Z,61.6
2023-04-18T14:42:41.000Z,61.8
2023-04-18T14:43:57.000Z,61.8
2023-04-18T14:45:13.000Z,61.6
2023-04-18T14:46:29.000Z,61.6
2023-04-18T14:47:45.000Z,61.2
2023-04-18T14:49:01.000Z,61.8
2023-04-18T14:50:17.000Z,61.9
2023-04-18T14:51:33.000Z,61.6
2023-04-18T14:52:50.000Z,61.7
2023-04-18T14:54:06.000Z,61.6
2023-04-18T14:55:22.000Z,62
2023-04-18T14:56:38.000Z,61.8
2023-04-18T14:57:54.000Z,61.8
2023-04-18T14:59:11.000Z,62
2023-04-18T15:00:27.000Z,61.8
2023-04-18T15:01:43.000Z,61.8
2023-04-18T15:02:58.000Z,61.7
2023-04-18T15:04:14.000Z,62.1
2023-04-18T15:05:31.000Z,62.4
2023-04-18T15:06:47.000Z,62.2
2023-04-18T15:08:03.000Z,62
2023-04-18T15:09:19.000Z,62
2023-04-18T15:10:35.000Z,62.3
2023-04-18T15:11:52.000Z,62.4
2023-04-18T15:13:08.000Z,62.7
2023-04-18T15:14:24.000Z,62.9
2023-04-18T15:15:40.591Z,63
2023-04-18T15:16:56.000Z,62.7
2023-04-18T15:18:13.000Z,62.8
2023-04-18T15:19:28.000Z,62.8
2023-04-18T15:20:44.000Z,63.2
2023-04-18T15:22:00.000Z,63
2023-04-18T15:23:16.000Z,62.9
2023-04-18T15:24:32.000Z,62.5
2023-04-18T15:25:49.000Z,62.1
2023-04-18T15:27:05.000Z,61.8
2023-04-18T15:28:21.000Z,62.3
2023-04-18T15:29:37.000Z,62.7
2023-04-18T15:30:53.000Z,63.1
2023-04-18T15:32:10.000Z,63
2023-04-18T15:33:26.000Z,62.9
2023-04-18T15:34:42.000Z,62.8
2023-04-18T15:35:57.000Z,62.7
2023-04-18T15:37:13.000Z,62.9
2023-04-18T15:38:30.000Z,63.2
2023-04-18T15:39:46.000Z,63.1
2023-04-18T15:41:02.000Z,62.5
2023-04-18T15:42:18.000Z,62.5
2023-04-18T15:43:34.000Z,62.5
2023-04-18T15:44:51.000Z,62.7
2023-04-18T15:46:07.000Z,62.8
2023-04-18T15:47:23.000Z,62.8
2023-04-18T15:48:39.000Z,62.7
2023-04-18T15:49:55.000Z,62.7
2023-04-18T15:51:12.000Z,62.6
2023-04-18T15:52:27.000Z,62.6
2023-04-18T15:53:43.486Z,62.4
2023-04-18T15:54:59.000Z,62.5
2023-04-18T15:56:15.000Z,62.4
2023-04-18T15:57:32.000Z,62.4
2023-04-18T15:58:48.000Z,61.6
2023-04-18T16:00:04.000Z,62
2023-04-18T16:01:20.000Z,61.7
2023-04-18T16:02:36.000Z,61.5
2023-04-18T16:03:53.000Z,62.1
2023-04-18T16:05:09.000Z,62.4
2023-04-18T16:06:25.000Z,62.4
2023-04-18T16:07:41.000Z,62.6
2023-04-18T16:08:56.000Z,62.5
2023-04-18T16:10:13.000Z,62.5
2023-04-18T16:11:29.000Z,62.5
2023-04-18T16:12:45.000Z,62.5
2023-04-18T16:14:01.636Z,62.5
2023-04-18T16:15:17.000Z,62.7
2023-04-18T16:16:34.000Z,62.6
2023-04-18T16:17:50.000Z,62.2
2023-04-18T16:19:06.416Z,62.2
2023-04-18T16:20:22.000Z,62.1
2023-04-18T16:21:38.000Z,61.9
2023-04-18T16:22:55.000Z,62.1
2023-04-18T16:24:11.000Z,62.4
2023-04-18T16:25:26.000Z,62.3
2023-04-18T16:26:42.000Z,62.3
2023-04-18T16:27:58.000Z,62.5
2023-04-18T16:29:14.993Z,62.8
2023-04-18T16:30:31.000Z,62.7
2023-04-18T16:31:47.378Z,62.8
2023-04-18T16:33:03.000Z,62.8
2023-04-18T16:34:19.000Z,63.1
2023-04-18T16:35:35.960Z,63
2023-04-18T16:36:52.000Z,62.6
2023-04-18T16:38:08.000Z,62.5
2023-04-18T16:39:24.000Z,62.4
2023-04-18T16:40:40.000Z,62.5
2023-04-18T16:41:55.000Z,62.6
2023-04-18T16:43:12.000Z,62.6
2023-04-18T16:44:28.000Z,62.8
2023-04-18T16:45:44.000Z,62.6
2023-04-18T16:47:00.000Z,62.6
2023-04-18T16:48:16.000Z,62.7
2023-04-18T16:49:33.000Z,62.7
2023-04-18T16:50:49.000Z,62.4
2023-04-18T16:52:05.000Z,62.2
2023-04-18T16:53:21.000Z,60.9
2023-04-18T16:54:37.000Z,59.2
2023-04-18T16:55:54.000Z,58.9
2023-04-18T16:57:10.000Z,59.9
2023-04-18T16:58:25.000Z,61
2023-04-18T16:59:41.000Z,61.6